Berea, Texas
Current Conditions -  °F | °C
As of 3:15 PM on Saturday 22 Nov 2014 (Local Time) from KASL Reporting Station
Clear Clear  
Wind Chill: 68°   Ceiling: Unl
Heat Index: 68°   Visibility: 10mi
Dew Point: 60°   Wind: 6mph
Humidity: 74%   Direction: 160°SSE
Pressure: 29.95"   Gusts: NA
Location:  32.7902°N, 94.3019°W
Report Text: KASL 222115Z AUTO 16005KT 10SM CLR 20/16 A2995 RMK AO1 T02020155
Loading
Personal Weather Stations






























Interactive Weather Map New forecast layout! Learn more

10-Day Weather Forecast

Advertisements
Track Severe Weather on mobile